North Las Vegas, Nevada
Current Conditions -  °F | °C
As of 4:58 PM on Monday 24 Nov 2014 (Local Time) from KLSV Reporting Station
Clear Clear  
Wind Chill: 63°   Ceiling: Unl
Heat Index: 63°   Visibility: 10mi
Dew Point: 10°   Wind: 3mph
Humidity: 12%   Direction: 270°W
Pressure: 30.34"   Gusts: NA
Location:  36.2°N, 115.11°W
Report Text: KLSV 250058Z AUTO 27003KT 10SM CLR 17/M12 A3034 RMK AO2 SLP273 T01701125
Loading
Personal Weather Stations






























Interactive Weather Map New forecast layout! Learn more

10-Day Weather Forecast

Advertisements
Track Severe Weather on mobile